Time;durP1;ratioP1;P1;durP2;ratioP2;P2;SDS_P1;SDS_P2;PMS_P1;PMS_P2;Temp;Humidity;BMP_temperature;BMP_pressure;BME280_temperature;BME280_humidity;BME280_pressure;Samples;Min_cycle;Max_cycle;Signal;HPM_P1;HPM_P2
2023/08/18 00:01:03;;;;;;;9.05;7.85;;;20.50;99.90;;;;;;2602477;54;20087;31
2023/08/18 00:03:40;;;;;;;12.65;9.95;;;20.60;99.90;;;;;;2603150;54;19934;31
2023/08/18 00:06:13;;;;;;;10.43;9.35;;;20.50;99.90;;;;;;2603087;54;20038;31
2023/08/18 00:08:48;;;;;;;11.60;9.85;;;20.50;99.90;;;;;;2621435;46;20160;31
2023/08/18 00:11:23;;;;;;;10.00;8.80;;;20.50;99.90;;;;;;2621516;46;20081;31
2023/08/18 00:13:58;;;;;;;11.45;10.20;;;20.50;99.90;;;;;;2603613;54;20037;31
2023/08/18 00:16:34;;;;;;;9.50;8.60;;;20.50;99.90;;;;;;2621799;46;20023;31
2023/08/18 00:19:12;;;;;;;12.27;10.17;;;20.40;99.90;;;;;;2603382;54;20076;31
2023/08/18 00:21:47;;;;;;;13.20;10.15;;;20.50;99.90;;;;;;2603443;54;20060;31
2023/08/18 00:24:22;;;;;;;9.50;8.60;;;20.40;99.90;;;;;;2720282;39;20481;31
2023/08/18 00:26:57;;;;;;;9.32;8.43;;;20.40;99.90;;;;;;2603234;54;20845;31
2023/08/18 00:29:32;;;;;;;12.20;10.05;;;20.40;99.90;;;;;;2603441;54;20022;31
2023/08/18 00:32:07;;;;;;;11.50;9.55;;;20.40;99.90;;;;;;2603400;54;19934;31
2023/08/18 00:34:46;;;;;;;13.20;11.80;;;20.40;99.90;;;;;;2603212;54;20833;31
2023/08/18 00:37:21;;;;;;;10.43;9.43;;;20.40;99.90;;;;;;2604073;54;20027;31
2023/08/18 00:39:56;;;;;;;9.00;8.15;;;20.40;99.90;;;;;;2604010;54;20022;31
2023/08/18 00:42:31;;;;;;;12.25;11.05;;;20.40;99.90;;;;;;2604140;54;20884;31
2023/08/18 00:45:05;;;;;;;13.27;9.60;;;20.40;99.90;;;;;;2622195;46;20038;31
2023/08/18 00:47:40;;;;;;;10.82;9.50;;;20.40;99.90;;;;;;2604209;54;20049;31
2023/08/18 00:50:18;;;;;;;14.30;11.55;;;20.40;99.90;;;;;;2603963;54;20038;31
2023/08/18 00:52:57;;;;;;;9.38;8.48;;;20.40;99.90;;;;;;2720900;39;21496;31
2023/08/18 00:55:32;;;;;;;11.75;10.13;;;20.40;99.90;;;;;;2603834;54;20842;31
2023/08/18 00:58:08;;;;;;;12.45;10.85;;;20.40;99.90;;;;;;2604155;54;20033;31
2023/08/18 01:00:43;;;;;;;11.60;10.50;;;20.40;99.90;;;;;;2603811;54;20037;31
2023/08/18 01:03:18;;;;;;;10.43;9.33;;;20.30;99.90;;;;;;2604044;54;20031;31
2023/08/18 01:05:55;;;;;;;11.82;10.63;;;20.40;99.90;;;;;;2603854;54;20910;31
2023/08/18 01:08:30;;;;;;;12.70;10.63;;;20.40;99.90;;;;;;2603797;54;20033;31
2023/08/18 01:11:09;;;;;;;14.95;11.55;;;20.40;99.90;;;;;;2604054;54;20026;31
2023/08/18 01:16:16;;;;;;;13.23;11.82;;;20.30;99.90;;;;;;2622025;46;20027;31
2023/08/18 01:18:50;;;;;;;13.80;11.27;;;20.30;99.90;;;;;;2702208;39;21540;31
2023/08/18 01:21:28;;;;;;;14.77;13.23;;;20.30;99.90;;;;;;2720640;39;21560;31
2023/08/18 01:24:07;;;;;;;13.30;11.30;;;20.30;99.90;;;;;;2622512;46;20114;31
2023/08/18 01:26:42;;;;;;;14.95;13.40;;;20.30;99.90;;;;;;2603898;54;20034;31
2023/08/18 01:29:17;;;;;;;14.53;12.07;;;20.20;99.90;;;;;;2604091;54;20031;31
2023/08/18 01:31:54;;;;;;;12.60;10.20;;;20.20;99.90;;;;;;2622156;46;20027;31
2023/08/18 01:34:29;;;;;;;12.30;11.10;;;20.10;99.90;;;;;;2603964;54;19989;31
2023/08/18 01:37:04;;;;;;;9.00;8.10;;;20.10;99.90;;;;;;2603784;54;20030;31
2023/08/18 01:39:45;;;;;;;11.40;9.15;;;20.10;99.90;;;;;;2603743;54;20116;31
2023/08/18 01:42:19;;;;;;;12.18;10.93;;;20.10;99.90;;;;;;2603924;54;20851;31
2023/08/18 01:44:54;;;;;;;17.83;12.90;;;20.10;99.90;;;;;;2603844;54;20030;31
2023/08/18 01:47:29;;;;;;;15.80;13.50;;;20.10;99.90;;;;;;2603887;54;20049;31
2023/08/18 01:50:03;;;;;;;12.70;11.50;;;20.10;99.90;;;;;;2621993;46;20729;31
2023/08/18 01:52:38;;;;;;;15.10;12.60;;;20.10;99.90;;;;;;2603682;54;20026;31
2023/08/18 01:55:16;;;;;;;14.75;11.40;;;20.00;99.90;;;;;;2621969;46;20042;31
2023/08/18 01:57:50;;;;;;;11.93;10.80;;;20.10;99.90;;;;;;2603874;54;20034;31
2023/08/18 02:00:25;;;;;;;11.63;10.57;;;20.00;99.90;;;;;;2603691;54;20022;31
2023/08/18 02:02:59;;;;;;;14.00;11.80;;;20.00;99.90;;;;;;2622581;46;21204;31
2023/08/18 02:05:34;;;;;;;16.60;12.80;;;20.00;99.90;;;;;;2603694;54;20360;31
2023/08/18 02:08:10;;;;;;;14.90;10.00;;;20.00;99.90;;;;;;2603629;54;20853;31
2023/08/18 02:10:44;;;;;;;12.30;10.68;;;20.00;99.90;;;;;;2603887;54;20847;31
2023/08/18 02:13:21;;;;;;;10.90;9.80;;;20.00;99.90;;;;;;2702107;39;20516;31
2023/08/18 02:15:56;;;;;;;13.75;11.60;;;20.00;99.90;;;;;;2603694;54;20895;31
2023/08/18 02:18:33;;;;;;;13.43;11.02;;;20.00;99.90;;;;;;2622316;46;20565;31
2023/08/18 02:21:10;;;;;;;11.43;10.30;;;20.00;99.90;;;;;;2603558;54;20026;31
2023/08/18 02:23:44;;;;;;;11.77;10.57;;;19.90;99.90;;;;;;2603938;54;20026;31
2023/08/18 02:26:19;;;;;;;13.05;10.95;;;19.90;99.90;;;;;;2602921;54;20817;31
2023/08/18 02:28:56;;;;;;;13.75;12.45;;;19.90;99.90;;;;;;2603660;54;21016;31
2023/08/18 02:31:31;;;;;;;14.80;13.27;;;19.90;99.90;;;;;;2603576;54;20037;31
2023/08/18 02:34:06;;;;;;;10.98;9.35;;;19.90;99.90;;;;;;2603762;54;20108;31
2023/08/18 02:36:42;;;;;;;15.70;12.70;;;19.80;99.90;;;;;;2622077;46;20577;31
2023/08/18 02:39:17;;;;;;;12.63;11.43;;;19.80;99.90;;;;;;2603560;54;20779;31
2023/08/18 02:41:53;;;;;;;13.67;12.27;;;19.70;99.90;;;;;;2621974;46;20031;31
2023/08/18 02:44:30;;;;;;;15.25;12.25;;;19.70;99.90;;;;;;2603405;54;20027;31
2023/08/18 02:47:09;;;;;;;14.43;10.15;;;19.60;99.90;;;;;;2603546;54;20031;31
2023/08/18 02:49:46;;;;;;;12.85;11.57;;;19.60;99.90;;;;;;2702296;39;20990;31
2023/08/18 02:52:21;;;;;;;14.13;12.35;;;19.60;99.90;;;;;;2603671;54;20152;31
2023/08/18 02:54:56;;;;;;;13.88;10.13;;;19.60;99.90;;;;;;2622116;46;20804;31
2023/08/18 02:57:31;;;;;;;10.20;9.20;;;19.60;99.90;;;;;;2702075;39;20470;31
2023/08/18 03:00:10;;;;;;;12.93;11.20;;;19.60;99.90;;;;;;2603220;54;20264;31
2023/08/18 03:02:45;;;;;;;12.52;10.43;;;19.60;99.90;;;;;;2622040;46;20904;31
2023/08/18 03:05:20;;;;;;;17.05;12.00;;;19.60;99.90;;;;;;2603518;54;20934;31
2023/08/18 03:07:54;;;;;;;12.75;10.80;;;19.60;99.90;;;;;;2603617;54;20899;31
2023/08/18 03:10:29;;;;;;;15.35;10.80;;;19.60;99.90;;;;;;2603399;54;20026;31
2023/08/18 03:13:05;;;;;;;13.13;10.18;;;19.50;99.90;;;;;;2603549;54;20144;31
2023/08/18 03:15:44;;;;;;;;;;;19.50;99.90;;;;;;2603580;54;20085;31
2023/08/18 03:18:19;;;;;;;13.23;8.82;;;19.50;99.90;;;;;;2622013;46;20805;31
2023/08/18 03:21:00;;;;;;;13.95;10.20;;;19.40;99.90;;;;;;2702012;39;20466;31
2023/08/18 03:23:35;;;;;;;10.98;9.93;;;19.40;99.90;;;;;;2603288;54;20842;31
2023/08/18 03:26:07;;;;;;;13.70;11.48;;;19.40;99.90;;;;;;2702119;39;20991;31
2023/08/18 03:28:43;;;;;;;11.55;10.38;;;19.40;99.90;;;;;;2603552;54;20868;31
2023/08/18 03:31:20;;;;;;;11.73;10.57;;;19.40;99.90;;;;;;2622272;46;20022;31
2023/08/18 03:33:54;;;;;;;12.25;11.05;;;19.40;99.90;;;;;;2603527;54;20725;31
2023/08/18 03:36:29;;;;;;;14.30;11.50;;;19.40;99.90;;;;;;2603495;54;20119;31
2023/08/18 03:39:05;;;;;;;14.13;12.70;;;19.40;99.90;;;;;;2603329;54;20052;31
2023/08/18 03:41:40;;;;;;;13.30;11.88;;;19.40;99.90;;;;;;2603266;54;20032;31
2023/08/18 03:44:15;;;;;;;12.07;10.85;;;19.30;99.90;;;;;;2701604;39;21499;31
2023/08/18 03:46:53;;;;;;;16.63;14.13;;;19.30;99.90;;;;;;2603282;54;20871;31
2023/08/18 03:49:27;;;;;;;12.50;10.10;;;19.30;99.90;;;;;;2603529;54;20037;31
2023/08/18 03:52:02;;;;;;;13.40;10.80;;;19.30;99.90;;;;;;2603395;54;20088;31
2023/08/18 03:54:37;;;;;;;14.83;13.07;;;19.30;99.90;;;;;;2603119;54;21020;31
2023/08/18 03:57:12;;;;;;;12.10;10.90;;;19.30;99.90;;;;;;2603384;54;20805;31
2023/08/18 03:59:45;;;;;;;14.30;12.55;;;19.30;99.90;;;;;;2702067;39;21054;31
2023/08/18 04:02:23;;;;;;;16.33;14.15;;;19.30;99.90;;;;;;2701716;39;20545;31
2023/08/18 04:04:57;;;;;;;20.10;15.97;;;19.30;99.90;;;;;;2603171;54;19942;31
2023/08/18 04:07:32;;;;;;;12.15;10.85;;;19.30;99.90;;;;;;2720027;39;20508;31
2023/08/18 04:10:09;;;;;;;14.93;11.67;;;19.30;99.90;;;;;;2603172;54;20030;31
2023/08/18 04:12:43;;;;;;;15.75;12.77;;;19.30;99.90;;;;;;2603027;54;20892;31
2023/08/18 04:15:18;;;;;;;13.57;12.10;;;19.30;99.90;;;;;;2603208;54;20034;31
2023/08/18 04:17:58;;;;;;;16.10;13.80;;;19.30;99.90;;;;;;2701898;39;21496;31
2023/08/18 04:20:34;;;;;;;13.68;11.52;;;19.30;99.90;;;;;;2701581;39;20717;31
2023/08/18 04:23:10;;;;;;;15.45;13.00;;;19.30;99.90;;;;;;2603142;54;21524;31
2023/08/18 04:25:48;;;;;;;15.57;13.73;;;19.30;99.90;;;;;;2603320;54;20037;31
2023/08/18 04:28:23;;;;;;;12.07;10.88;;;19.20;99.90;;;;;;2621678;46;20816;31
2023/08/18 04:31:01;;;;;;;13.27;11.85;;;19.20;99.90;;;;;;2603046;54;20912;31
2023/08/18 04:33:49;;;;;;;13.68;12.27;;;19.30;99.90;;;;;;2603160;54;20562;31
2023/08/18 04:36:28;;;;;;;15.50;14.00;;;19.30;99.90;;;;;;2621396;46;20120;31
2023/08/18 04:39:06;;;;;;;15.87;12.00;;;19.40;99.90;;;;;;2603203;54;20022;31
2023/08/18 04:41:41;;;;;;;13.27;11.88;;;19.50;99.90;;;;;;2603088;54;20030;31
2023/08/18 04:44:16;;;;;;;13.30;11.45;;;19.60;99.90;;;;;;2603193;54;21566;31
2023/08/18 04:46:52;;;;;;;12.57;11.27;;;19.80;99.90;;;;;;2603109;54;21583;31
2023/08/18 04:49:30;;;;;;;13.77;12.20;;;19.90;99.90;;;;;;2603138;54;20030;31
2023/08/18 04:52:10;;;;;;;13.45;11.60;;;19.90;99.90;;;;;;2603062;54;20033;31
2023/08/18 04:54:44;;;;;;;12.73;11.43;;;19.90;99.90;;;;;;2603017;54;20037;31
2023/08/18 04:57:19;;;;;;;12.57;10.13;;;19.90;99.90;;;;;;2602912;54;20027;31
2023/08/18 04:59:54;;;;;;;12.60;11.18;;;20.00;99.90;;;;;;2602808;54;20797;31
2023/08/18 05:02:31;;;;;;;13.18;10.52;;;20.00;99.90;;;;;;2701365;39;20463;31
2023/08/18 05:05:06;;;;;;;;;;;19.90;99.90;;;;;;2603315;54;20042;31
2023/08/18 05:07:45;;;;;;;15.02;11.98;;;19.90;99.90;;;;;;2701335;39;20411;31
2023/08/18 05:10:21;;;;;;;12.52;10.98;;;19.90;99.90;;;;;;2620670;47;20026;31
2023/08/18 05:12:58;;;;;;;14.05;12.65;;;19.90;99.90;;;;;;2602928;54;20912;31
2023/08/18 05:15:36;;;;;;;13.93;11.68;;;19.90;99.90;;;;;;2602802;54;20940;31
2023/08/18 05:18:14;;;;;;;9.77;8.80;;;19.90;99.90;;;;;;2603353;54;20029;31
2023/08/18 05:20:49;;;;;;;13.20;11.77;;;20.10;99.90;;;;;;2603009;54;20911;31
2023/08/18 05:23:32;;;;;;;12.68;9.25;;;20.30;99.90;;;;;;2720217;39;20492;31
2023/08/18 05:26:08;;;;;;;13.85;10.60;;;20.60;99.90;;;;;;2622412;46;21562;31
2023/08/18 05:28:44;;;;;;;12.70;11.50;;;20.90;99.90;;;;;;2603592;54;20026;31
2023/08/18 05:31:19;;;;;;;11.90;9.75;;;21.10;99.90;;;;;;2603674;54;20026;31
2023/08/18 05:33:57;;;;;;;11.55;9.40;;;21.40;99.90;;;;;;2603649;54;20893;31
2023/08/18 05:36:32;;;;;;;13.40;8.70;;;21.60;99.90;;;;;;2621967;46;19934;31
2023/08/18 05:39:06;;;;;;;10.48;9.00;;;21.80;99.90;;;;;;2603812;54;20827;31
2023/08/18 05:41:47;;;;;;;9.80;8.77;;;22.00;99.90;;;;;;2603744;54;20868;31
2023/08/18 05:44:22;;;;;;;12.32;9.27;;;22.20;99.90;;;;;;2603659;54;20053;31
2023/08/18 05:46:57;;;;;;;10.47;9.30;;;22.40;99.90;;;;;;2603716;54;19942;31
2023/08/18 05:49:32;;;;;;;11.25;8.45;;;22.50;99.90;;;;;;2603678;54;20037;31
2023/08/18 05:52:08;;;;;;;9.85;8.88;;;22.70;99.90;;;;;;2603626;54;20123;31
2023/08/18 05:54:43;;;;;;;10.27;9.00;;;22.90;99.90;;;;;;2603734;54;20030;31
2023/08/18 05:57:21;;;;;;;13.75;8.63;;;22.90;99.90;;;;;;2603666;54;20050;31
2023/08/18 05:59:57;;;;;;;10.02;8.38;;;23.10;99.90;;;;;;2702442;39;20396;31
2023/08/18 06:02:32;;;;;;;9.95;8.95;;;23.30;99.90;;;;;;2603608;54;20037;31
2023/08/18 06:05:10;;;;;;;10.50;9.00;;;23.50;99.90;;;;;;2603555;54;21714;31
2023/08/18 06:07:45;;;;;;;8.93;8.00;;;23.60;99.90;;;;;;2622089;46;20112;31
2023/08/18 06:10:20;;;;;;;11.50;8.65;;;23.70;99.90;;;;;;2603660;54;20034;31
2023/08/18 06:13:00;;;;;;;10.30;8.57;;;24.00;99.90;;;;;;2603708;54;20022;31
2023/08/18 06:15:37;;;;;;;11.70;8.20;;;24.20;99.90;;;;;;2621619;46;20252;31
2023/08/18 06:18:13;;;;;;;13.23;8.77;;;24.30;99.90;;;;;;2603869;54;20026;31
2023/08/18 06:20:49;;;;;;;12.15;8.75;;;24.40;99.90;;;;;;2603580;54;20911;31
2023/08/18 06:23:26;;;;;;;10.57;8.70;;;24.40;99.90;;;;;;2622187;46;20058;31
2023/08/18 06:26:00;;;;;;;8.73;7.83;;;24.60;99.90;;;;;;2603568;54;20027;31
2023/08/18 06:28:36;;;;;;;10.63;7.35;;;24.80;99.90;;;;;;2603695;54;20238;31
2023/08/18 06:31:09;;;;;;;7.72;6.65;;;25.10;99.90;;;;;;2619105;46;21248;31
2023/08/18 06:33:43;;;;;;;8.05;7.25;;;25.30;99.90;;;;;;2609581;46;20026;31
2023/08/18 06:36:16;;;;;;;9.90;6.95;;;25.50;99.90;;;;;;2773547;31;20545;31
2023/08/18 06:38:51;;;;;;;8.07;7.15;;;25.50;99.90;;;;;;2603344;54;20814;31
2023/08/18 06:41:26;;;;;;;9.33;7.10;;;25.50;99.90;;;;;;2622082;46;20049;31
2023/08/18 06:44:04;;;;;;;7.90;7.13;;;25.60;99.90;;;;;;2603612;54;20898;31
2023/08/18 06:46:43;;;;;;;8.30;7.13;;;25.80;99.90;;;;;;2603447;54;20026;31
2023/08/18 06:49:20;;;;;;;9.20;7.03;;;26.00;99.90;;;;;;2603348;54;20874;31
2023/08/18 06:51:55;;;;;;;7.90;6.57;;;26.10;99.90;;;;;;2603478;54;20038;31
2023/08/18 06:54:30;;;;;;;7.32;6.60;;;26.20;99.90;;;;;;2603084;54;20789;31
2023/08/18 06:57:08;;;;;;;8.18;6.72;;;26.30;99.90;;;;;;2603479;54;20038;31
2023/08/18 06:59:46;;;;;;;6.93;6.22;;;26.40;99.90;;;;;;2603464;54;20094;31
2023/08/18 07:02:20;;;;;;;8.30;6.00;;;26.60;99.90;;;;;;2602816;54;20519;31
2023/08/18 07:04:53;;;;;;;6.80;5.80;;;26.80;99.90;;;;;;2618969;46;20022;31
2023/08/18 07:07:25;;;;;;;9.95;6.53;;;26.90;99.90;;;;;;2632573;54;19923;-92
2023/08/18 07:10:00;;;;;;;8.95;6.20;;;27.00;99.90;;;;;;2715932;39;20444;31
2023/08/18 07:12:38;;;;;;;7.20;6.55;;;27.00;99.90;;;;;;2603366;54;20030;31
2023/08/18 07:15:17;;;;;;;8.07;7.15;;;26.90;99.90;;;;;;2621851;46;20847;31
2023/08/18 07:17:52;;;;;;;9.95;7.13;;;26.60;99.90;;;;;;2603638;54;20027;31
2023/08/18 07:20:28;;;;;;;7.60;6.78;;;26.40;99.90;;;;;;2603200;54;20034;31
2023/08/18 07:23:03;;;;;;;7.43;6.68;;;26.20;99.90;;;;;;2603271;54;20115;31
2023/08/18 07:25:39;;;;;;;8.90;7.85;;;26.00;99.90;;;;;;2701799;39;20477;31
2023/08/18 07:28:14;;;;;;;9.17;7.50;;;25.80;99.90;;;;;;2603340;54;20038;31
2023/08/18 07:30:53;;;;;;;9.38;7.88;;;25.70;99.90;;;;;;2603383;54;20577;31
2023/08/18 07:33:27;;;;;;;8.82;7.13;;;25.50;99.90;;;;;;2621826;46;20022;31
2023/08/18 07:36:02;;;;;;;8.63;7.63;;;25.30;99.90;;;;;;2603314;54;20029;31
2023/08/18 07:38:38;;;;;;;7.70;6.95;;;25.20;99.90;;;;;;2603279;54;20870;31
2023/08/18 07:41:12;;;;;;;7.70;6.65;;;25.20;99.90;;;;;;2602658;54;20093;31
2023/08/18 07:43:47;;;;;;;8.90;8.00;;;25.20;99.90;;;;;;2603291;54;20925;31
2023/08/18 07:46:26;;;;;;;9.13;8.23;;;25.20;99.90;;;;;;2603047;54;20080;31
2023/08/18 07:49:01;;;;;;;9.05;7.20;;;25.20;99.90;;;;;;2603578;54;20034;31
2023/08/18 07:51:39;;;;;;;9.43;7.60;;;25.10;99.90;;;;;;2603382;54;20054;31
2023/08/18 07:54:15;;;;;;;9.35;7.47;;;25.10;99.90;;;;;;2603426;54;20847;31
2023/08/18 07:56:50;;;;;;;9.68;7.65;;;25.00;99.90;;;;;;2603412;54;20905;31
2023/08/18 07:59:26;;;;;;;10.45;8.00;;;24.90;99.90;;;;;;2603507;54;20030;31
2023/08/18 08:02:04;;;;;;;8.70;7.70;;;24.90;99.90;;;;;;2603469;54;20925;31
2023/08/18 08:04:59;;;;;;;10.02;8.32;;;25.00;99.90;;;;;;2603212;54;19942;31
2023/08/18 08:07:34;;;;;;;10.43;8.13;;;25.00;99.90;;;;;;2603335;54;20100;31
2023/08/18 08:10:12;;;;;;;10.82;8.63;;;25.00;99.90;;;;;;2603138;54;20278;31
2023/08/18 08:12:49;;;;;;;11.20;8.77;;;24.90;99.90;;;;;;2603180;54;20715;31
2023/08/18 08:15:28;;;;;;;10.00;8.85;;;24.90;99.90;;;;;;2621532;46;20144;31
2023/08/18 08:18:05;;;;;;;9.30;8.18;;;24.90;99.90;;;;;;2603372;54;20084;31
2023/08/18 08:20:49;;;;;;;11.60;8.10;;;24.90;99.90;;;;;;2603314;54;20052;31
2023/08/18 08:23:25;;;;;;;9.52;8.52;;;25.00;99.90;;;;;;2603203;54;20116;31
2023/08/18 08:26:01;;;;;;;11.48;7.93;;;25.00;99.90;;;;;;2603109;54;20026;31
2023/08/18 08:28:38;;;;;;;9.73;8.20;;;25.10;99.90;;;;;;2791384;31;21575;31
2023/08/18 08:31:14;;;;;;;8.83;7.50;;;25.10;99.90;;;;;;2603330;54;20037;31
2023/08/18 08:33:52;;;;;;;9.15;8.25;;;25.20;99.90;;;;;;2719868;39;20505;31
2023/08/18 08:36:32;;;;;;;7.95;7.20;;;25.30;99.90;;;;;;2603271;54;20042;31
2023/08/18 08:39:09;;;;;;;8.27;7.30;;;25.40;99.90;;;;;;2621371;47;20037;31
2023/08/18 08:41:44;;;;;;;9.40;7.60;;;25.50;99.90;;;;;;2602954;54;20031;31
2023/08/18 08:44:21;;;;;;;8.30;6.95;;;25.60;99.90;;;;;;2603040;54;20022;31
2023/08/18 08:46:57;;;;;;;11.77;8.00;;;25.60;99.90;;;;;;2603293;54;20037;31
2023/08/18 08:49:35;;;;;;;;;;;25.60;99.90;;;;;;2621938;47;20042;31
2023/08/18 08:52:16;;;;;;;14.33;7.10;;;25.60;99.90;;;;;;2621195;47;20020;31
2023/08/18 08:54:56;;;;;;;7.20;6.23;;;25.60;99.90;;;;;;2701475;39;20374;31
2023/08/18 08:57:32;;;;;;;8.10;7.30;;;25.70;99.90;;;;;;2603280;54;20046;31
2023/08/18 09:00:14;;;;;;;7.78;6.97;;;25.80;99.90;;;;;;2702296;39;20484;31
2023/08/18 09:02:50;;;;;;;8.55;6.80;;;25.80;99.90;;;;;;2603894;54;20022;31
2023/08/18 09:05:32;;;;;;;10.38;7.38;;;26.00;99.90;;;;;;2603889;54;20798;31
2023/08/18 09:08:09;;;;;;;7.07;6.38;;;26.30;99.90;;;;;;2622605;46;21633;31
2023/08/18 09:10:44;;;;;;;9.35;7.25;;;26.90;99.90;;;;;;2603677;54;20030;31
2023/08/18 09:13:20;;;;;;;6.70;5.97;;;27.20;99.90;;;;;;2603590;54;20803;31
2023/08/18 09:15:55;;;;;;;12.45;7.10;;;27.60;99.90;;;;;;2603729;54;20793;31
2023/08/18 09:18:31;;;;;;;7.50;6.15;;;27.90;99.90;;;;;;2603809;54;20119;31
2023/08/18 09:21:11;;;;;;;6.53;5.93;;;28.10;99.90;;;;;;2702303;39;21664;31
2023/08/18 09:23:48;;;;;;;6.82;5.72;;;28.40;99.90;;;;;;2720692;39;20466;31
2023/08/18 09:26:24;;;;;;;8.05;5.72;;;28.60;99.90;;;;;;2603581;54;20026;31
2023/08/18 09:28:59;;;;;;;7.20;5.15;;;28.80;99.90;;;;;;2702246;39;20560;31
2023/08/18 09:31:33;;;;;;;5.90;5.40;;;29.00;99.90;;;;;;2603858;54;20041;31
2023/08/18 09:34:09;;;;;;;6.10;5.47;;;29.20;99.90;;;;;;2603909;54;20907;31
2023/08/18 09:36:59;;;;;;;5.93;5.45;;;29.40;99.90;;;;;;2603770;54;20769;31
2023/08/18 09:39:45;;;;;;;5.50;4.90;;;29.40;99.90;;;;;;2603769;54;20862;31
2023/08/18 09:42:20;;;;;;;5.78;5.25;;;29.60;99.90;;;;;;2622022;46;20052;31
2023/08/18 09:44:56;;;;;;;8.20;5.40;;;29.70;99.90;;;;;;2603662;54;20103;31
2023/08/18 09:47:32;;;;;;;8.57;5.70;;;29.90;99.90;;;;;;2603906;54;20986;31
2023/08/18 09:50:07;;;;;;;7.50;5.38;;;30.20;99.90;;;;;;2603714;54;20030;31
2023/08/18 09:52:45;;;;;;;6.65;6.05;;;30.30;99.90;;;;;;2622177;46;20815;31
2023/08/18 09:55:26;;;;;;;6.28;5.68;;;30.50;99.90;;;;;;2603550;54;20958;31
2023/08/18 09:58:00;;;;;;;7.15;5.90;;;30.70;99.90;;;;;;2603583;54;21394;31
2023/08/18 10:00:36;;;;;;;7.50;5.40;;;30.90;99.90;;;;;;2603592;54;20910;31
2023/08/18 10:03:12;;;;;;;6.43;5.60;;;31.00;99.90;;;;;;2603899;54;20027;31
2023/08/18 10:05:47;;;;;;;7.72;5.68;;;31.10;99.90;;;;;;2621861;46;20829;31
2023/08/18 10:08:28;;;;;;;6.75;5.50;;;31.10;99.90;;;;;;2603427;54;21440;31
2023/08/18 10:11:03;;;;;;;7.40;5.43;;;31.10;99.90;;;;;;2702313;39;20482;31
2023/08/18 10:13:37;;;;;;;5.70;5.20;;;31.10;99.90;;;;;;2603665;54;21454;31
2023/08/18 10:16:12;;;;;;;9.05;5.80;;;31.00;99.90;;;;;;2603783;54;20591;31
2023/08/18 10:18:49;;;;;;;;;;;30.70;99.90;;;;;;2702550;39;20489;31
2023/08/18 10:21:25;;;;;;;7.38;5.55;;;30.50;99.90;;;;;;2622117;46;19993;31
2023/08/18 10:24:03;;;;;;;8.02;6.38;;;30.30;99.90;;;;;;2603424;54;20660;31
2023/08/18 10:26:38;;;;;;;6.00;5.50;;;30.00;99.90;;;;;;2603675;54;20816;31
2023/08/18 10:29:19;;;;;;;9.75;6.30;;;29.70;99.90;;;;;;2603572;54;20038;31
2023/08/18 10:32:14;;;;;;;7.03;5.95;;;29.50;99.90;;;;;;2773491;31;20619;31
2023/08/18 10:34:48;;;;;;;6.20;5.55;;;29.30;99.90;;;;;;2603475;54;20042;31
2023/08/18 10:37:24;;;;;;;11.40;6.80;;;29.20;99.90;;;;;;2603504;54;20851;31
2023/08/18 10:40:04;;;;;;;7.15;6.45;;;29.10;99.90;;;;;;2603654;54;20026;31
2023/08/18 10:42:41;;;;;;;7.22;6.53;;;29.00;99.90;;;;;;2603647;54;21672;31
2023/08/18 10:45:28;;;;;;;8.07;6.90;;;28.90;99.90;;;;;;2622247;46;20557;31
2023/08/18 10:48:06;;;;;;;7.13;6.43;;;28.80;99.90;;;;;;2622019;46;20029;31
2023/08/18 10:50:45;;;;;;;7.68;6.15;;;28.80;99.90;;;;;;2621959;46;20030;31
2023/08/18 10:53:20;;;;;;;5.82;5.22;;;28.80;99.90;;;;;;2603580;54;20837;31
2023/08/18 10:55:57;;;;;;;7.43;6.60;;;28.90;99.90;;;;;;2603650;54;20927;31
2023/08/18 10:58:31;;;;;;;8.57;6.40;;;29.10;99.90;;;;;;2603587;54;20034;31
2023/08/18 11:01:09;;;;;;;6.80;6.20;;;29.20;99.90;;;;;;2621623;46;20872;31
2023/08/18 11:03:46;;;;;;;6.82;6.18;;;29.40;99.90;;;;;;2603693;54;20843;31
2023/08/18 11:06:26;;;;;;;6.97;6.38;;;29.60;99.90;;;;;;2701838;39;20644;31
2023/08/18 11:09:00;;;;;;;6.93;6.00;;;29.80;99.90;;;;;;2621725;46;20866;31
2023/08/18 11:11:39;;;;;;;9.43;6.60;;;29.90;99.90;;;;;;2603323;54;20026;31
2023/08/18 11:14:17;;;;;;;7.45;6.68;;;30.00;99.90;;;;;;2603519;54;20029;31
2023/08/18 11:16:50;;;;;;;6.97;5.90;;;30.00;99.90;;;;;;2603269;54;21976;31
2023/08/18 11:19:26;;;;;;;;;;;30.00;99.90;;;;;;2622238;46;20611;31
2023/08/18 11:22:04;;;;;;;6.30;5.70;;;30.20;99.90;;;;;;2602951;54;19939;31
2023/08/18 11:24:40;;;;;;;7.22;5.78;;;30.20;99.90;;;;;;2701644;39;20702;31
2023/08/18 11:27:21;;;;;;;9.18;6.05;;;30.20;99.90;;;;;;2603391;54;20886;31
2023/08/18 11:29:58;;;;;;;7.90;6.45;;;30.20;99.90;;;;;;2603332;54;20881;31
2023/08/18 11:32:36;;;;;;;7.88;6.43;;;30.30;99.90;;;;;;2603351;54;20033;31
2023/08/18 11:35:12;;;;;;;8.00;5.57;;;30.40;99.90;;;;;;2603496;54;20026;31
2023/08/18 11:37:48;;;;;;;8.45;6.30;;;30.40;99.90;;;;;;2603227;54;20030;31
2023/08/18 11:40:25;;;;;;;6.82;6.13;;;30.50;99.90;;;;;;2701805;39;20543;31
2023/08/18 11:43:02;;;;;;;6.80;6.15;;;30.60;99.90;;;;;;2603510;54;20083;31
2023/08/18 11:45:37;;;;;;;6.80;6.05;;;30.70;99.90;;;;;;2621910;46;20820;31
2023/08/18 11:48:16;;;;;;;6.88;6.25;;;30.80;99.90;;;;;;2603346;54;20035;31
2023/08/18 11:50:50;;;;;;;7.88;6.47;;;30.90;99.90;;;;;;2603267;54;20053;31
2023/08/18 11:53:26;;;;;;;6.50;5.90;;;30.90;99.90;;;;;;2701821;39;20639;31
2023/08/18 11:56:02;;;;;;;7.85;6.60;;;31.00;99.90;;;;;;2603382;54;20038;31
2023/08/18 11:58:39;;;;;;;7.40;6.45;;;31.00;99.90;;;;;;2603243;54;20037;31
2023/08/18 12:01:14;;;;;;;7.25;6.55;;;30.90;99.90;;;;;;2603010;54;20038;31
2023/08/18 12:03:57;;;;;;;9.20;6.20;;;30.90;99.90;;;;;;2603445;54;20030;31
2023/08/18 12:06:33;;;;;;;6.85;6.18;;;30.90;99.90;;;;;;2701725;39;21451;31
2023/08/18 12:09:07;;;;;;;11.02;7.30;;;30.80;99.90;;;;;;2621532;46;20136;31
2023/08/18 12:11:46;;;;;;;7.43;6.80;;;30.60;99.90;;;;;;2621666;46;20577;31
2023/08/18 12:14:25;;;;;;;7.40;6.70;;;30.50;99.90;;;;;;2701661;39;20394;31
2023/08/18 12:17:00;;;;;;;7.65;6.70;;;30.40;99.90;;;;;;2603120;54;20938;31
2023/08/18 12:19:36;;;;;;;8.85;7.00;;;30.30;99.90;;;;;;2622014;46;20026;31
2023/08/18 12:22:13;;;;;;;8.67;7.20;;;30.30;99.90;;;;;;2603107;54;20811;31
2023/08/18 12:24:49;;;;;;;8.38;7.55;;;30.30;99.90;;;;;;2621607;46;20573;31
2023/08/18 12:27:29;;;;;;;9.18;7.15;;;30.30;99.90;;;;;;2621510;46;20818;31
2023/08/18 12:30:09;;;;;;;7.60;6.90;;;30.30;99.90;;;;;;2621529;46;20709;31
2023/08/18 12:32:48;;;;;;;7.50;6.80;;;30.30;99.90;;;;;;2602856;54;20269;31
2023/08/18 12:35:23;;;;;;;6.65;6.05;;;30.50;99.90;;;;;;2719741;39;21545;31
2023/08/18 12:38:00;;;;;;;7.25;6.55;;;30.50;99.90;;;;;;2701633;39;21454;31
2023/08/18 12:40:35;;;;;;;7.35;6.75;;;30.50;99.90;;;;;;2603196;54;20119;31
2023/08/18 12:43:11;;;;;;;7.93;7.22;;;30.60;99.90;;;;;;2603216;54;20030;31
2023/08/18 12:45:48;;;;;;;7.90;6.75;;;30.60;99.90;;;;;;2603390;54;20030;31
2023/08/18 12:48:25;;;;;;;8.30;6.90;;;30.60;99.90;;;;;;2603035;54;20112;31
2023/08/18 12:51:01;;;;;;;8.60;7.13;;;30.70;99.90;;;;;;2603124;54;21116;31
2023/08/18 12:53:36;;;;;;;9.18;7.60;;;30.70;99.90;;;;;;2602923;54;20058;31
2023/08/18 12:56:11;;;;;;;6.80;6.18;;;30.80;99.90;;;;;;2603072;54;20026;31
2023/08/18 12:58:45;;;;;;;8.80;7.22;;;30.90;99.90;;;;;;2602914;54;20949;31
2023/08/18 13:01:24;;;;;;;8.80;7.40;;;30.90;99.90;;;;;;2603024;54;20045;31
2023/08/18 13:03:59;;;;;;;10.38;7.30;;;30.80;99.90;;;;;;2602646;54;20034;31
2023/08/18 13:06:34;;;;;;;;;;;30.70;99.90;;;;;;2603339;54;20890;31
2023/08/18 13:09:10;;;;;;;9.00;6.63;;;30.70;99.90;;;;;;2602952;54;19934;31
2023/08/18 13:11:46;;;;;;;;;;;30.70;99.90;;;;;;2621761;47;20026;31
2023/08/18 13:14:21;;;;;;;6.95;6.40;;;30.80;99.90;;;;;;2602945;54;20746;31
2023/08/18 13:17:02;;;;;;;8.50;7.10;;;30.90;99.90;;;;;;2602066;54;20064;31
2023/08/18 13:19:39;;;;;;;8.50;6.80;;;30.90;99.90;;;;;;2602748;54;20852;31
2023/08/18 13:22:21;;;;;;;7.35;6.32;;;30.90;99.90;;;;;;2603053;54;20053;31
2023/08/18 13:24:56;;;;;;;;;;;30.90;99.90;;;;;;2603164;54;20034;31
2023/08/18 13:27:27;;;;;;;9.18;6.80;;;30.80;99.90;;;;;;2632026;54;19919;-91
2023/08/18 13:30:02;;;;;;;7.47;6.50;;;30.70;99.90;;;;;;2602595;54;20034;31
2023/08/18 13:32:40;;;;;;;12.60;7.60;;;30.60;99.90;;;;;;2617051;47;20030;31
2023/08/18 13:35:15;;;;;;;7.38;6.60;;;30.50;99.90;;;;;;2621245;47;20038;31
2023/08/18 13:37:53;;;;;;;6.72;5.82;;;30.50;99.90;;;;;;2602683;54;20100;31
2023/08/18 13:40:30;;;;;;;6.88;6.18;;;30.50;99.90;;;;;;2602757;54;20029;31